sensor_id;sensor_type;location;lat;lon;timestamp;pressure;altitude;pressure_sealevel;temperature;humidity
39411;BME280;26579;43.238;23.124;2023-05-20T00:00:08;97374.75;;;16.21;71.82
39411;BME280;26579;43.238;23.124;2023-05-20T00:02:34;97349.38;;;16.12;71.93
39411;BME280;26579;43.238;23.124;2023-05-20T00:05:00;97368.41;;;16.14;71.78
39411;BME280;26579;43.238;23.124;2023-05-20T00:07:25;97373.16;;;16.11;72.09
39411;BME280;26579;43.238;23.124;2023-05-20T00:09:51;97359.41;;;15.99;72.03
39411;BME280;26579;43.238;23.124;2023-05-20T00:12:17;97366.03;;;16.03;72.38
39411;BME280;26579;43.238;23.124;2023-05-20T00:14:43;97359.06;;;16.12;71.71
39411;BME280;26579;43.238;23.124;2023-05-20T00:17:08;97355.22;;;16.06;71.43
39411;BME280;26579;43.238;23.124;2023-05-20T00:19:34;97353.34;;;15.98;72.06
39411;BME280;26579;43.238;23.124;2023-05-20T00:22:00;97353.47;;;15.97;72.06
39411;BME280;26579;43.238;23.124;2023-05-20T00:24:26;97342.06;;;15.88;72.08
39411;BME280;26579;43.238;23.124;2023-05-20T00:26:52;97339.59;;;15.87;72.22
39411;BME280;26579;43.238;23.124;2023-05-20T00:29:20;97345.78;;;15.68;72.71
39411;BME280;26579;43.238;23.124;2023-05-20T00:31:47;97341.78;;;15.63;72.79
39411;BME280;26579;43.238;23.124;2023-05-20T00:34:13;97338.34;;;15.63;72.04
39411;BME280;26579;43.238;23.124;2023-05-20T00:36:39;97339.84;;;15.66;70.80
39411;BME280;26579;43.238;23.124;2023-05-20T00:39:04;97328.28;;;15.58;70.59
39411;BME280;26579;43.238;23.124;2023-05-20T00:41:31;97336.84;;;15.60;71.18
39411;BME280;26579;43.238;23.124;2023-05-20T00:43:56;97331.78;;;15.49;70.85
39411;BME280;26579;43.238;23.124;2023-05-20T00:46:23;97332.47;;;15.51;71.47
39411;BME280;26579;43.238;23.124;2023-05-20T00:48:48;97341.47;;;15.49;70.88
39411;BME280;26579;43.238;23.124;2023-05-20T00:51:16;97346.47;;;15.42;71.02
39411;BME280;26579;43.238;23.124;2023-05-20T00:53:42;97348.31;;;15.32;71.45
39411;BME280;26579;43.238;23.124;2023-05-20T00:56:08;97346.78;;;15.29;71.74
39411;BME280;26579;43.238;23.124;2023-05-20T00:58:34;97339.22;;;15.26;71.86
39411;BME280;26579;43.238;23.124;2023-05-20T01:01:00;97351.63;;;15.34;71.44
39411;BME280;26579;43.238;23.124;2023-05-20T01:03:27;97339.38;;;15.25;71.58
39411;BME280;26579;43.238;23.124;2023-05-20T01:05:53;97354.53;;;15.31;71.47
39411;BME280;26579;43.238;23.124;2023-05-20T01:08:20;97346.56;;;15.23;71.75
39411;BME280;26579;43.238;23.124;2023-05-20T01:10:50;97347.25;;;15.25;71.70
39411;BME280;26579;43.238;23.124;2023-05-20T01:13:20;97351.28;;;15.19;71.68
39411;BME280;26579;43.238;23.124;2023-05-20T01:15:48;97345.50;;;15.15;71.22
39411;BME280;26579;43.238;23.124;2023-05-20T01:18:15;97349.91;;;15.15;71.16
39411;BME280;26579;43.238;23.124;2023-05-20T01:20:41;97338.75;;;15.13;70.96
39411;BME280;26579;43.238;23.124;2023-05-20T01:23:06;97343.13;;;15.12;71.23
39411;BME280;26579;43.238;23.124;2023-05-20T01:25:32;97330.53;;;14.98;70.90
39411;BME280;26579;43.238;23.124;2023-05-20T01:27:58;97340.59;;;14.93;70.80
39411;BME280;26579;43.238;23.124;2023-05-20T01:30:31;97335.59;;;15.00;70.68
39411;BME280;26579;43.238;23.124;2023-05-20T01:33:05;97342.19;;;15.04;70.49
39411;BME280;26579;43.238;23.124;2023-05-20T01:35:33;97348.03;;;14.98;70.20
39411;BME280;26579;43.238;23.124;2023-05-20T01:38:00;97331.91;;;14.92;70.25
39411;BME280;26579;43.238;23.124;2023-05-20T01:40:28;97334.38;;;14.94;70.02
39411;BME280;26579;43.238;23.124;2023-05-20T01:42:55;97341.00;;;14.98;70.42
39411;BME280;26579;43.238;23.124;2023-05-20T01:45:23;97334.25;;;14.96;70.29
39411;BME280;26579;43.238;23.124;2023-05-20T01:47:48;97335.91;;;14.97;69.82
39411;BME280;26579;43.238;23.124;2023-05-20T01:50:15;97344.16;;;15.02;69.19
39411;BME280;26579;43.238;23.124;2023-05-20T01:52:41;97330.13;;;14.93;69.38
39411;BME280;26579;43.238;23.124;2023-05-20T01:55:07;97330.66;;;14.97;69.31
39411;BME280;26579;43.238;23.124;2023-05-20T01:57:32;97326.69;;;14.92;69.55
39411;BME280;26579;43.238;23.124;2023-05-20T01:59:58;97330.66;;;14.97;69.07
39411;BME280;26579;43.238;23.124;2023-05-20T02:02:24;97327.75;;;15.00;69.14
39411;BME280;26579;43.238;23.124;2023-05-20T02:04:50;97330.25;;;14.91;70.18
39411;BME280;26579;43.238;23.124;2023-05-20T02:07:17;97323.66;;;14.87;70.96
39411;BME280;26579;43.238;23.124;2023-05-20T02:09:45;97327.13;;;14.78;71.08
39411;BME280;26579;43.238;23.124;2023-05-20T02:12:10;97313.22;;;14.68;71.03
39411;BME280;26579;43.238;23.124;2023-05-20T02:14:36;97334.56;;;14.83;70.45
39411;BME280;26579;43.238;23.124;2023-05-20T02:17:02;97331.09;;;14.82;70.67
39411;BME280;26579;43.238;23.124;2023-05-20T02:19:28;97330.81;;;14.85;70.59
39411;BME280;26579;43.238;23.124;2023-05-20T02:21:54;97318.31;;;14.69;70.49
39411;BME280;26579;43.238;23.124;2023-05-20T02:24:20;97304.94;;;14.63;70.79
39411;BME280;26579;43.238;23.124;2023-05-20T02:26:47;97320.78;;;14.71;70.80
39411;BME280;26579;43.238;23.124;2023-05-20T02:29:12;97323.13;;;14.74;71.04
39411;BME280;26579;43.238;23.124;2023-05-20T02:31:38;97327.41;;;14.75;70.62
39411;BME280;26579;43.238;23.124;2023-05-20T02:34:03;97321.59;;;14.71;70.90
39411;BME280;26579;43.238;23.124;2023-05-20T02:36:29;97322.63;;;14.61;71.44
39411;BME280;26579;43.238;23.124;2023-05-20T02:38:55;97332.00;;;14.63;71.28
39411;BME280;26579;43.238;23.124;2023-05-20T02:41:21;97316.28;;;14.54;71.62
39411;BME280;26579;43.238;23.124;2023-05-20T02:43:47;97308.41;;;14.54;71.49
39411;BME280;26579;43.238;23.124;2023-05-20T02:46:13;97317.66;;;14.58;71.56
39411;BME280;26579;43.238;23.124;2023-05-20T02:48:39;97296.00;;;14.46;71.58
39411;BME280;26579;43.238;23.124;2023-05-20T02:51:05;97323.56;;;14.60;71.09
39411;BME280;26579;43.238;23.124;2023-05-20T02:53:31;97323.56;;;14.60;71.21
39411;BME280;26579;43.238;23.124;2023-05-20T02:55:56;97333.09;;;14.61;71.03
39411;BME280;26579;43.238;23.124;2023-05-20T02:58:22;97332.69;;;14.56;71.47
39411;BME280;26579;43.238;23.124;2023-05-20T03:00:48;97334.63;;;14.54;71.45
39411;BME280;26579;43.238;23.124;2023-05-20T03:03:14;97331.31;;;14.61;71.49
39411;BME280;26579;43.238;23.124;2023-05-20T03:05:39;97334.06;;;14.60;71.50
39411;BME280;26579;43.238;23.124;2023-05-20T03:08:09;97341.25;;;14.58;71.59
39411;BME280;26579;43.238;23.124;2023-05-20T03:10:36;97338.31;;;14.51;71.58
39411;BME280;26579;43.238;23.124;2023-05-20T03:13:03;97332.69;;;14.56;70.93
39411;BME280;26579;43.238;23.124;2023-05-20T03:15:29;97348.38;;;14.65;71.09
39411;BME280;26579;43.238;23.124;2023-05-20T03:17:55;97335.56;;;14.62;71.15
39411;BME280;26579;43.238;23.124;2023-05-20T03:20:20;97339.28;;;14.69;71.33
39411;BME280;26579;43.238;23.124;2023-05-20T03:22:47;97347.97;;;14.70;71.00
39411;BME280;26579;43.238;23.124;2023-05-20T03:25:12;97336.53;;;14.61;71.18
39411;BME280;26579;43.238;23.124;2023-05-20T03:27:38;97339.56;;;14.66;71.15
39411;BME280;26579;43.238;23.124;2023-05-20T03:30:04;97338.19;;;14.62;71.36
39411;BME280;26579;43.238;23.124;2023-05-20T03:32:31;97343.00;;;14.67;71.26
39411;BME280;26579;43.238;23.124;2023-05-20T03:34:56;97332.94;;;14.62;71.41
39411;BME280;26579;43.238;23.124;2023-05-20T03:37:22;97347.28;;;14.68;71.24
39411;BME280;26579;43.238;23.124;2023-05-20T03:39:48;97339.84;;;14.63;71.17
39411;BME280;26579;43.238;23.124;2023-05-20T03:42:14;97351.00;;;14.75;70.93
39411;BME280;26579;43.238;23.124;2023-05-20T03:44:41;97358.31;;;14.81;71.95
39411;BME280;26579;43.238;23.124;2023-05-20T03:47:06;97359.13;;;14.82;71.66
39411;BME280;26579;43.238;23.124;2023-05-20T03:49:32;97356.91;;;14.77;71.50
39411;BME280;26579;43.238;23.124;2023-05-20T03:51:58;97354.56;;;14.74;71.80
39411;BME280;26579;43.238;23.124;2023-05-20T03:54:24;97366.84;;;14.74;72.44
39411;BME280;26579;43.238;23.124;2023-05-20T03:56:54;97368.81;;;14.62;73.74
39411;BME280;26579;43.238;23.124;2023-05-20T03:59:19;97370.59;;;14.61;74.17
39411;BME280;26579;43.238;23.124;2023-05-20T04:01:45;97370.88;;;14.68;74.53
39411;BME280;26579;43.238;23.124;2023-05-20T04:04:11;97370.19;;;14.56;75.21
39411;BME280;26579;43.238;23.124;2023-05-20T04:06:36;97384.13;;;14.66;74.71
39411;BME280;26579;43.238;23.124;2023-05-20T04:09:02;97378.44;;;14.71;75.42
39411;BME280;26579;43.238;23.124;2023-05-20T04:11:29;97380.13;;;14.72;75.08
39411;BME280;26579;43.238;23.124;2023-05-20T04:13:55;97388.38;;;14.67;76.05
39411;BME280;26579;43.238;23.124;2023-05-20T04:16:22;97384.22;;;14.75;75.80
39411;BME280;26579;43.238;23.124;2023-05-20T04:18:48;97391.41;;;14.82;75.84
39411;BME280;26579;43.238;23.124;2023-05-20T04:21:14;97371.03;;;14.66;75.17
39411;BME280;26579;43.238;23.124;2023-05-20T04:23:40;97388.78;;;14.82;74.88
39411;BME280;26579;43.238;23.124;2023-05-20T04:26:06;97386.56;;;14.87;74.69
39411;BME280;26579;43.238;23.124;2023-05-20T04:28:32;97384.06;;;14.96;73.82
39411;BME280;26579;43.238;23.124;2023-05-20T04:31:02;97389.81;;;15.09;72.90
39411;BME280;26579;43.238;23.124;2023-05-20T04:33:29;97391.44;;;15.20;72.76
39411;BME280;26579;43.238;23.124;2023-05-20T04:35:55;97357.81;;;15.05;73.17
39411;BME280;26579;43.238;23.124;2023-05-20T04:38:21;97388.41;;;15.24;73.40
39411;BME280;26579;43.238;23.124;2023-05-20T04:40:48;97383.91;;;15.34;73.24
39411;BME280;26579;43.238;23.124;2023-05-20T04:43:14;97377.41;;;15.38;73.27
39411;BME280;26579;43.238;23.124;2023-05-20T04:45:40;97393.78;;;15.50;73.33
39411;BME280;26579;43.238;23.124;2023-05-20T04:48:05;97386.56;;;15.62;73.02
39411;BME280;26579;43.238;23.124;2023-05-20T04:50:31;97374.78;;;15.66;73.08
39411;BME280;26579;43.238;23.124;2023-05-20T04:52:57;97386.38;;;15.73;73.26
39411;BME280;26579;43.238;23.124;2023-05-20T04:55:23;97367.06;;;15.74;72.86
39411;BME280;26579;43.238;23.124;2023-05-20T04:57:49;97366.00;;;15.85;72.83
39411;BME280;26579;43.238;23.124;2023-05-20T05:00:15;97379.16;;;16.03;72.49
39411;BME280;26579;43.238;23.124;2023-05-20T05:02:41;97365.75;;;16.06;72.38
39411;BME280;26579;43.238;23.124;2023-05-20T05:05:07;97364.63;;;16.26;71.61
39411;BME280;26579;43.238;23.124;2023-05-20T05:07:33;97362.56;;;16.38;70.17
39411;BME280;26579;43.238;23.124;2023-05-20T05:09:59;97369.84;;;16.44;69.68
39411;BME280;26579;43.238;23.124;2023-05-20T05:12:28;97363.97;;;16.50;69.89
39411;BME280;26579;43.238;23.124;2023-05-20T05:14:54;97375.44;;;16.67;69.04
39411;BME280;26579;43.238;23.124;2023-05-20T05:17:19;97375.38;;;16.77;68.37
39411;BME280;26579;43.238;23.124;2023-05-20T05:19:45;97354.84;;;16.81;67.88
39411;BME280;26579;43.238;23.124;2023-05-20T05:22:11;97353.84;;;17.00;67.66
39411;BME280;26579;43.238;23.124;2023-05-20T05:24:38;97341.25;;;17.11;67.28
39411;BME280;26579;43.238;23.124;2023-05-20T05:27:04;97346.53;;;17.19;66.92
39411;BME280;26579;43.238;23.124;2023-05-20T05:29:30;97339.47;;;17.20;67.12
39411;BME280;26579;43.238;23.124;2023-05-20T05:31:55;97346.91;;;17.33;66.45
39411;BME280;26579;43.238;23.124;2023-05-20T05:34:21;97349.44;;;17.42;65.50
39411;BME280;26579;43.238;23.124;2023-05-20T05:36:47;97352.44;;;17.56;64.56
39411;BME280;26579;43.238;23.124;2023-05-20T05:39:13;97353.47;;;17.63;62.46
39411;BME280;26579;43.238;23.124;2023-05-20T05:41:39;97360.75;;;17.77;60.88
39411;BME280;26579;43.238;23.124;2023-05-20T05:44:07;97353.56;;;17.87;64.69
39411;BME280;26579;43.238;23.124;2023-05-20T05:46:33;97352.75;;;17.95;65.70
39411;BME280;26579;43.238;23.124;2023-05-20T05:48:59;97338.94;;;18.01;65.02
39411;BME280;26579;43.238;23.124;2023-05-20T05:51:26;97346.34;;;18.14;66.49
39411;BME280;26579;43.238;23.124;2023-05-20T05:53:52;97332.03;;;18.17;66.02
39411;BME280;26579;43.238;23.124;2023-05-20T05:56:17;97341.41;;;18.11;65.85
39411;BME280;26579;43.238;23.124;2023-05-20T05:58:43;97336.31;;;18.09;66.09
39411;BME280;26579;43.238;23.124;2023-05-20T06:01:10;97343.22;;;18.19;66.29
39411;BME280;26579;43.238;23.124;2023-05-20T06:03:35;97354.25;;;18.22;66.64
39411;BME280;26579;43.238;23.124;2023-05-20T06:06:01;97348.50;;;18.27;67.89
39411;BME280;26579;43.238;23.124;2023-05-20T06:08:27;97344.56;;;18.39;67.35
39411;BME280;26579;43.238;23.124;2023-05-20T06:10:53;97341.75;;;18.49;67.13
39411;BME280;26579;43.238;23.124;2023-05-20T06:13:19;97336.81;;;18.54;66.36
39411;BME280;26579;43.238;23.124;2023-05-20T06:15:45;97351.97;;;18.68;65.84
39411;BME280;26579;43.238;23.124;2023-05-20T06:18:13;97349.84;;;18.80;66.76
39411;BME280;26579;43.238;23.124;2023-05-20T06:20:38;97339.63;;;18.85;65.75
39411;BME280;26579;43.238;23.124;2023-05-20T06:23:04;97337.91;;;19.00;65.89
39411;BME280;26579;43.238;23.124;2023-05-20T06:25:41;97337.56;;;19.12;65.38
39411;BME280;26579;43.238;23.124;2023-05-20T06:28:07;97343.97;;;19.17;61.37
39411;BME280;26579;43.238;23.124;2023-05-20T06:30:33;97336.34;;;19.31;62.03
39411;BME280;26579;43.238;23.124;2023-05-20T06:32:59;97324.09;;;19.38;64.36
39411;BME280;26579;43.238;23.124;2023-05-20T06:35:25;97331.13;;;19.54;62.82
39411;BME280;26579;43.238;23.124;2023-05-20T06:37:51;97326.16;;;19.59;60.70
39411;BME280;26579;43.238;23.124;2023-05-20T06:40:16;97327.44;;;19.71;61.00
39411;BME280;26579;43.238;23.124;2023-05-20T06:42:42;97327.56;;;19.78;59.12
39411;BME280;26579;43.238;23.124;2023-05-20T06:45:08;97337.25;;;19.85;58.30
39411;BME280;26579;43.238;23.124;2023-05-20T06:48:00;97324.28;;;19.76;58.01
39411;BME280;26579;43.238;23.124;2023-05-20T06:50:26;97339.19;;;19.92;60.83
39411;BME280;26579;43.238;23.124;2023-05-20T06:52:52;97334.69;;;20.00;60.04
39411;BME280;26579;43.238;23.124;2023-05-20T06:55:18;97344.09;;;20.03;59.84
39411;BME280;26579;43.238;23.124;2023-05-20T06:57:44;97345.00;;;20.10;60.67
39411;BME280;26579;43.238;23.124;2023-05-20T07:00:11;97342.50;;;20.17;57.91
39411;BME280;26579;43.238;23.124;2023-05-20T07:02:41;97346.75;;;20.26;58.79
39411;BME280;26579;43.238;23.124;2023-05-20T07:05:07;97344.84;;;20.34;58.56
39411;BME280;26579;43.238;23.124;2023-05-20T07:07:33;97321.19;;;20.18;59.86
39411;BME280;26579;43.238;23.124;2023-05-20T07:09:59;97338.41;;;20.37;59.63
39411;BME280;26579;43.238;23.124;2023-05-20T07:12:24;97342.69;;;20.38;60.46
39411;BME280;26579;43.238;23.124;2023-05-20T07:14:50;97339.16;;;20.46;60.75
39411;BME280;26579;43.238;23.124;2023-05-20T07:17:16;97355.16;;;20.52;59.33
39411;BME280;26579;43.238;23.124;2023-05-20T07:19:44;97351.19;;;20.48;57.03
39411;BME280;26579;43.238;23.124;2023-05-20T07:22:09;97346.22;;;20.53;54.99
39411;BME280;26579;43.238;23.124;2023-05-20T07:24:51;97347.53;;;20.49;54.00
39411;BME280;26579;43.238;23.124;2023-05-20T07:27:16;97344.75;;;20.51;51.57
39411;BME280;26579;43.238;23.124;2023-05-20T07:29:42;97347.59;;;20.64;54.27
39411;BME280;26579;43.238;23.124;2023-05-20T07:32:09;97338.44;;;20.75;53.58
39411;BME280;26579;43.238;23.124;2023-05-20T07:34:35;97345.44;;;20.83;55.86
39411;BME280;26579;43.238;23.124;2023-05-20T07:37:01;97341.19;;;20.96;53.91
39411;BME280;26579;43.238;23.124;2023-05-20T07:39:26;97345.66;;;21.11;54.23
39411;BME280;26579;43.238;23.124;2023-05-20T07:41:52;97341.19;;;21.26;52.10
39411;BME280;26579;43.238;23.124;2023-05-20T07:44:18;97336.72;;;21.12;49.83
39411;BME280;26579;43.238;23.124;2023-05-20T07:46:47;97348.88;;;21.06;48.77
39411;BME280;26579;43.238;23.124;2023-05-20T07:49:13;97333.69;;;21.00;49.51
39411;BME280;26579;43.238;23.124;2023-05-20T07:51:39;97352.69;;;21.18;51.34
39411;BME280;26579;43.238;23.124;2023-05-20T07:54:06;97351.31;;;21.22;51.11
39411;BME280;26579;43.238;23.124;2023-05-20T07:56:32;97353.50;;;21.34;51.79
39411;BME280;26579;43.238;23.124;2023-05-20T07:58:59;97351.81;;;21.56;51.59
39411;BME280;26579;43.238;23.124;2023-05-20T08:01:28;97359.00;;;21.62;50.65
39411;BME280;26579;43.238;23.124;2023-05-20T08:03:55;97344.44;;;21.73;50.43
39411;BME280;26579;43.238;23.124;2023-05-20T08:06:25;97355.88;;;21.58;47.75
39411;BME280;26579;43.238;23.124;2023-05-20T08:08:51;97350.34;;;21.53;49.56
39411;BME280;26579;43.238;23.124;2023-05-20T08:11:21;97351.16;;;21.54;48.45
39411;BME280;26579;43.238;23.124;2023-05-20T08:13:47;97350.25;;;21.61;47.08
39411;BME280;26579;43.238;23.124;2023-05-20T08:16:14;97346.38;;;21.79;49.78
39411;BME280;26579;43.238;23.124;2023-05-20T08:18:40;97341.13;;;21.85;46.84
39411;BME280;26579;43.238;23.124;2023-05-20T08:21:08;97346.25;;;21.87;47.08
39411;BME280;26579;43.238;23.124;2023-05-20T08:23:34;97344.38;;;22.02;46.76
39411;BME280;26579;43.238;23.124;2023-05-20T08:26:00;97348.56;;;22.11;44.46
39411;BME280;26579;43.238;23.124;2023-05-20T08:28:29;97345.13;;;22.32;45.60
39411;BME280;26579;43.238;23.124;2023-05-20T08:30:55;97343.22;;;22.26;43.63
39411;BME280;26579;43.238;23.124;2023-05-20T08:33:21;97343.34;;;22.18;44.46
39411;BME280;26579;43.238;23.124;2023-05-20T08:35:47;97339.09;;;22.02;43.71
39411;BME280;26579;43.238;23.124;2023-05-20T08:38:13;97338.06;;;21.82;45.40
39411;BME280;26579;43.238;23.124;2023-05-20T08:40:39;97342.34;;;22.04;46.11
39411;BME280;26579;43.238;23.124;2023-05-20T08:43:05;97325.69;;;22.25;44.34
39411;BME280;26579;43.238;23.124;2023-05-20T08:45:32;97332.50;;;22.34;44.94
39411;BME280;26579;43.238;23.124;2023-05-20T08:48:04;97332.22;;;22.29;43.99
39411;BME280;26579;43.238;23.124;2023-05-20T08:50:30;97325.81;;;22.45;43.41
39411;BME280;26579;43.238;23.124;2023-05-20T08:52:56;97316.41;;;22.64;44.98
39411;BME280;26579;43.238;23.124;2023-05-20T08:55:42;97305.19;;;22.69;43.75
39411;BME280;26579;43.238;23.124;2023-05-20T08:58:09;97326.53;;;22.82;44.08
39411;BME280;26579;43.238;23.124;2023-05-20T09:00:35;97336.44;;;22.95;43.17
39411;BME280;26579;43.238;23.124;2023-05-20T09:03:00;97320.03;;;23.13;43.75
39411;BME280;26579;43.238;23.124;2023-05-20T09:05:26;97324.00;;;23.30;44.50
39411;BME280;26579;43.238;23.124;2023-05-20T09:07:52;97316.09;;;23.43;42.38
39411;BME280;26579;43.238;23.124;2023-05-20T09:10:18;97319.38;;;23.45;42.43
39411;BME280;26579;43.238;23.124;2023-05-20T09:12:44;97321.66;;;23.55;45.53
39411;BME280;26579;43.238;23.124;2023-05-20T09:15:10;97329.84;;;23.54;45.19
39411;BME280;26579;43.238;23.124;2023-05-20T09:17:37;97319.94;;;23.34;43.64
39411;BME280;26579;43.238;23.124;2023-05-20T09:20:11;97321.66;;;23.14;44.78
39411;BME280;26579;43.238;23.124;2023-05-20T09:22:38;97320.25;;;23.18;44.27
39411;BME280;26579;43.238;23.124;2023-05-20T09:25:08;97311.88;;;23.21;47.53
39411;BME280;26579;43.238;23.124;2023-05-20T09:27:34;97313.81;;;23.34;44.87
39411;BME280;26579;43.238;23.124;2023-05-20T09:29:59;97314.72;;;23.13;45.01
39411;BME280;26579;43.238;23.124;2023-05-20T09:32:26;97311.03;;;23.14;46.21
39411;BME280;26579;43.238;23.124;2023-05-20T09:34:52;97304.25;;;23.46;47.88
39411;BME280;26579;43.238;23.124;2023-05-20T09:37:20;97299.19;;;23.58;44.33
39411;BME280;26579;43.238;23.124;2023-05-20T09:39:57;97284.66;;;23.54;45.24
39411;BME280;26579;43.238;23.124;2023-05-20T09:42:29;97298.09;;;23.39;43.44
39411;BME280;26579;43.238;23.124;2023-05-20T09:44:58;97286.91;;;23.57;45.44
39411;BME280;26579;43.238;23.124;2023-05-20T09:47:25;97296.97;;;23.68;42.26
39411;BME280;26579;43.238;23.124;2023-05-20T09:49:51;97272.81;;;23.56;43.07
39411;BME280;26579;43.238;23.124;2023-05-20T09:52:17;97280.97;;;23.55;42.25
39411;BME280;26579;43.238;23.124;2023-05-20T09:54:44;97275.28;;;23.64;42.80
39411;BME280;26579;43.238;23.124;2023-05-20T09:57:11;97278.22;;;23.83;42.97
39411;BME280;26579;43.238;23.124;2023-05-20T09:59:37;97282.69;;;23.82;42.44
39411;BME280;26579;43.238;23.124;2023-05-20T10:02:05;97280.31;;;23.94;41.67
39411;BME280;26579;43.238;23.124;2023-05-20T10:04:33;97272.06;;;23.82;43.54
39411;BME280;26579;43.238;23.124;2023-05-20T10:10:37;97268.59;;;23.82;45.62
39411;BME280;26579;43.238;23.124;2023-05-20T10:15:55;97269.69;;;24.27;43.81
39411;BME280;26579;43.238;23.124;2023-05-20T10:21:20;97259.25;;;24.12;41.89
39411;BME280;26579;43.238;23.124;2023-05-20T10:23:46;97259.84;;;24.08;43.09
39411;BME280;26579;43.238;23.124;2023-05-20T10:26:11;97257.81;;;24.10;45.38
39411;BME280;26579;43.238;23.124;2023-05-20T10:28:39;97262.66;;;23.73;41.82
39411;BME280;26579;43.238;23.124;2023-05-20T10:31:20;97258.38;;;23.72;47.51
39411;BME280;26579;43.238;23.124;2023-05-20T10:33:47;97260.03;;;23.86;46.38
39411;BME280;26579;43.238;23.124;2023-05-20T10:38:58;97239.16;;;23.97;44.23
39411;BME280;26579;43.238;23.124;2023-05-20T10:41:25;97250.94;;;23.67;42.49
39411;BME280;26579;43.238;23.124;2023-05-20T10:44:04;97253.69;;;23.81;42.93
39411;BME280;26579;43.238;23.124;2023-05-20T10:46:32;97249.00;;;23.89;43.67
39411;BME280;26579;43.238;23.124;2023-05-20T10:48:58;97237.75;;;24.01;42.95
39411;BME280;26579;43.238;23.124;2023-05-20T10:51:24;97254.31;;;24.03;44.32
39411;BME280;26579;43.238;23.124;2023-05-20T10:53:54;97248.38;;;24.07;42.18
39411;BME280;26579;43.238;23.124;2023-05-20T10:56:24;97258.78;;;23.76;43.23
39411;BME280;26579;43.238;23.124;2023-05-20T10:58:52;97250.78;;;23.76;44.63
39411;BME280;26579;43.238;23.124;2023-05-20T11:01:23;97239.34;;;23.75;44.28
39411;BME280;26579;43.238;23.124;2023-05-20T11:03:50;97243.38;;;23.58;42.44
39411;BME280;26579;43.238;23.124;2023-05-20T11:06:17;97248.50;;;23.59;44.31
39411;BME280;26579;43.238;23.124;2023-05-20T11:08:46;97228.16;;;23.32;43.11
39411;BME280;26579;43.238;23.124;2023-05-20T11:11:12;97241.28;;;23.40;42.80
39411;BME280;26579;43.238;23.124;2023-05-20T11:13:40;97235.97;;;23.46;42.85
39411;BME280;26579;43.238;23.124;2023-05-20T11:16:05;97240.06;;;23.49;42.77
39411;BME280;26579;43.238;23.124;2023-05-20T11:18:31;97240.38;;;23.74;43.00
39411;BME280;26579;43.238;23.124;2023-05-20T11:20:58;97239.38;;;23.88;42.66
39411;BME280;26579;43.238;23.124;2023-05-20T11:23:26;97235.28;;;23.86;41.57
39411;BME280;26579;43.238;23.124;2023-05-20T11:25:53;97235.63;;;23.69;42.24
39411;BME280;26579;43.238;23.124;2023-05-20T11:28:19;97233.53;;;23.52;41.29
39411;BME280;26579;43.238;23.124;2023-05-20T11:30:46;97238.81;;;23.38;42.79
39411;BME280;26579;43.238;23.124;2023-05-20T11:33:12;97240.81;;;23.23;43.07
39411;BME280;26579;43.238;23.124;2023-05-20T11:35:51;97235.94;;;23.33;43.27
39411;BME280;26579;43.238;23.124;2023-05-20T11:38:18;97224.69;;;23.31;43.43
39411;BME280;26579;43.238;23.124;2023-05-20T11:40:46;97219.63;;;23.36;42.61
39411;BME280;26579;43.238;23.124;2023-05-20T11:43:13;97206.09;;;23.24;43.84
39411;BME280;26579;43.238;23.124;2023-05-20T11:45:46;97218.75;;;23.22;43.29
39411;BME280;26579;43.238;23.124;2023-05-20T11:48:12;97209.34;;;23.26;45.23
39411;BME280;26579;43.238;23.124;2023-05-20T11:50:39;97213.91;;;23.46;46.17
39411;BME280;26579;43.238;23.124;2023-05-20T11:53:10;97212.38;;;23.78;43.81
39411;BME280;26579;43.238;23.124;2023-05-20T11:55:52;97209.09;;;24.03;43.18
39411;BME280;26579;43.238;23.124;2023-05-20T11:58:26;97203.59;;;24.17;43.28
39411;BME280;26579;43.238;23.124;2023-05-20T12:00:52;97205.25;;;24.12;42.16
39411;BME280;26579;43.238;23.124;2023-05-20T12:03:18;97188.84;;;23.82;41.52
39411;BME280;26579;43.238;23.124;2023-05-20T12:05:43;97188.66;;;23.83;40.22
39411;BME280;26579;43.238;23.124;2023-05-20T12:08:09;97196.63;;;23.97;41.30
39411;BME280;26579;43.238;23.124;2023-05-20T12:10:37;97194.00;;;24.23;41.06
39411;BME280;26579;43.238;23.124;2023-05-20T12:13:02;97187.84;;;23.96;41.37
39411;BME280;26579;43.238;23.124;2023-05-20T12:15:29;97177.41;;;24.08;41.01
39411;BME280;26579;43.238;23.124;2023-05-20T12:17:55;97168.41;;;24.09;40.81
39411;BME280;26579;43.238;23.124;2023-05-20T12:20:22;97170.25;;;24.02;42.97
39411;BME280;26579;43.238;23.124;2023-05-20T12:22:48;97168.22;;;24.04;40.70
39411;BME280;26579;43.238;23.124;2023-05-20T12:25:15;97162.06;;;23.83;42.27
39411;BME280;26579;43.238;23.124;2023-05-20T12:27:42;97163.06;;;23.82;41.44
39411;BME280;26579;43.238;23.124;2023-05-20T12:30:08;97149.41;;;23.85;43.80
39411;BME280;26579;43.238;23.124;2023-05-20T12:32:36;97147.31;;;23.61;39.20
39411;BME280;26579;43.238;23.124;2023-05-20T12:35:01;97148.72;;;23.43;40.61
39411;BME280;26579;43.238;23.124;2023-05-20T12:37:27;97149.28;;;23.32;40.92
39411;BME280;26579;43.238;23.124;2023-05-20T12:39:53;97140.69;;;23.23;40.63
39411;BME280;26579;43.238;23.124;2023-05-20T12:42:19;97132.94;;;23.22;41.30
39411;BME280;26579;43.238;23.124;2023-05-20T12:44:44;97141.50;;;23.11;40.98
39411;BME280;26579;43.238;23.124;2023-05-20T12:47:10;97135.41;;;23.43;42.18
39411;BME280;26579;43.238;23.124;2023-05-20T12:49:36;97139.94;;;23.63;39.26
39411;BME280;26579;43.238;23.124;2023-05-20T12:52:02;97130.72;;;23.52;40.08
39411;BME280;26579;43.238;23.124;2023-05-20T12:54:27;97116.19;;;23.41;40.30
39411;BME280;26579;43.238;23.124;2023-05-20T12:56:53;97122.75;;;23.45;40.15
39411;BME280;26579;43.238;23.124;2023-05-20T12:59:19;97132.34;;;23.46;40.39